createdAt,value
2022-07-26T00:02:18.602Z,4.65
2022-07-26T00:04:44.941Z,4.13
2022-07-26T00:07:10.982Z,5.13
2022-07-26T00:09:37.064Z,4.18
2022-07-26T00:12:03.430Z,4.65
2022-07-26T00:14:29.763Z,4.35
2022-07-26T00:16:55.958Z,4.38
2022-07-26T00:19:22.045Z,4.53
2022-07-26T00:22:08.105Z,3.35
2022-07-26T00:24:35.566Z,4.72
2022-07-26T00:27:01.899Z,4.38
2022-07-26T00:29:27.987Z,5.15
2022-07-26T00:31:54.284Z,4.47
2022-07-26T00:34:20.502Z,4.95
2022-07-26T00:36:46.602Z,4.72
2022-07-26T00:39:12.688Z,4.75
2022-07-26T00:41:38.787Z,4.82
2022-07-26T00:44:05.214Z,4.32
2022-07-26T00:46:31.384Z,3.75
2022-07-26T00:48:57.612Z,5.07
2022-07-26T00:51:23.840Z,4.60
2022-07-26T00:53:50.455Z,4.22
2022-07-26T00:56:17.147Z,5.53
2022-07-26T00:58:43.533Z,4.90
2022-07-26T01:01:11.114Z,4.40
2022-07-26T01:03:39.639Z,4.20
2022-07-26T01:06:06.279Z,4.93
2022-07-26T01:08:33.661Z,4.68
2022-07-26T01:10:59.785Z,4.65
2022-07-26T01:13:25.999Z,4.45
2022-07-26T01:15:52.265Z,4.65
2022-07-26T01:18:18.344Z,3.72
2022-07-26T01:20:45.111Z,3.13
2022-07-26T01:23:11.658Z,4.50
2022-07-26T01:25:42.342Z,3.22
2022-07-26T01:28:12.056Z,3.60
2022-07-26T01:30:46.720Z,3.55
2022-07-26T01:33:12.821Z,3.47
2022-07-26T01:35:38.909Z,3.65
2022-07-26T01:38:05.007Z,2.97
2022-07-26T01:40:31.072Z,3.05
2022-07-26T01:42:57.282Z,3.28
2022-07-26T01:45:23.869Z,3.90
2022-07-26T01:47:50.036Z,3.10
2022-07-26T01:50:17.202Z,2.50
2022-07-26T01:52:43.923Z,2.50
2022-07-26T01:55:10.626Z,2.08
2022-07-26T01:57:36.873Z,2.40
2022-07-26T02:00:04.461Z,2.53
2022-07-26T02:02:34.085Z,2.33
2022-07-26T02:05:01.491Z,3.05
2022-07-26T02:07:32.833Z,2.33
2022-07-26T02:09:59.708Z,2.53
2022-07-26T02:12:25.893Z,2.17
2022-07-26T02:14:52.189Z,2.15
2022-07-26T02:17:18.345Z,2.13
2022-07-26T02:19:44.623Z,1.65
2022-07-26T02:22:12.511Z,1.85
2022-07-26T02:24:39.000Z,2.00
2022-07-26T02:27:05.424Z,2.22
2022-07-26T02:29:31.745Z,1.80
2022-07-26T02:31:58.263Z,1.70
2022-07-26T02:34:25.001Z,2.03
2022-07-26T02:36:51.457Z,1.95
2022-07-26T02:39:17.678Z,1.98
2022-07-26T02:41:43.781Z,2.15
2022-07-26T02:44:10.440Z,1.67
2022-07-26T02:46:37.447Z,1.83
2022-07-26T02:49:03.917Z,1.60
2022-07-26T02:51:30.015Z,2.17
2022-07-26T02:53:56.100Z,1.92
2022-07-26T02:56:22.198Z,1.40
2022-07-26T02:58:48.290Z,2.03
2022-07-26T03:01:14.678Z,2.00
2022-07-26T03:03:48.706Z,1.70
2022-07-26T03:06:17.697Z,1.60
2022-07-26T03:08:43.761Z,1.55
2022-07-26T03:11:12.146Z,1.85
2022-07-26T03:13:38.690Z,2.55
2022-07-26T03:16:06.044Z,1.42
2022-07-26T03:18:32.163Z,1.92
2022-07-26T03:20:58.276Z,1.90
2022-07-26T03:23:24.546Z,1.73
2022-07-26T03:25:50.673Z,2.30
2022-07-26T03:28:19.486Z,2.10
2022-07-26T03:30:45.894Z,1.85
2022-07-26T03:33:12.021Z,1.80
2022-07-26T03:35:38.196Z,1.85
2022-07-26T03:38:06.747Z,1.73
2022-07-26T03:40:32.879Z,2.03
2022-07-26T03:42:59.315Z,1.58
2022-07-26T03:45:25.514Z,1.80
2022-07-26T03:47:52.778Z,2.20
2022-07-26T03:50:19.245Z,1.92
2022-07-26T03:52:45.474Z,1.98
2022-07-26T03:55:30.014Z,1.65
2022-07-26T03:57:56.481Z,1.85
2022-07-26T04:00:22.613Z,1.80
2022-07-26T04:02:48.740Z,1.90
2022-07-26T04:05:15.010Z,1.88
2022-07-26T04:07:52.814Z,2.30
2022-07-26T04:10:20.566Z,1.85
2022-07-26T04:12:46.724Z,3.40
2022-07-26T04:15:12.794Z,2.03
2022-07-26T04:17:40.420Z,1.63
2022-07-26T04:20:07.969Z,2.13
2022-07-26T04:22:35.233Z,1.80
2022-07-26T04:25:02.313Z,2.03
2022-07-26T04:27:28.486Z,2.10
2022-07-26T04:29:54.829Z,2.20
2022-07-26T04:32:21.164Z,2.22
2022-07-26T04:34:47.407Z,2.10
2022-07-26T04:37:13.461Z,1.77
2022-07-26T04:39:39.551Z,2.28
2022-07-26T04:42:05.929Z,1.73
2022-07-26T04:44:32.412Z,2.65
2022-07-26T04:46:58.466Z,2.67
2022-07-26T04:49:24.696Z,1.77
2022-07-26T04:51:50.751Z,2.20
2022-07-26T04:54:20.140Z,2.10
2022-07-26T04:56:46.944Z,2.08
2022-07-26T04:59:14.093Z,1.75
2022-07-26T05:01:42.583Z,2.10
2022-07-26T05:04:09.555Z,2.05
2022-07-26T05:06:36.129Z,1.90
2022-07-26T05:09:02.638Z,2.20
2022-07-26T05:11:28.848Z,2.15
2022-07-26T05:13:55.072Z,1.90
2022-07-26T05:16:21.201Z,2.33
2022-07-26T05:18:49.512Z,2.35
2022-07-26T05:21:16.772Z,3.13
2022-07-26T05:23:43.828Z,2.40
2022-07-26T05:26:11.434Z,2.13
2022-07-26T05:28:40.724Z,2.20
2022-07-26T05:31:07.124Z,3.00
2022-07-26T05:33:33.271Z,2.80
2022-07-26T05:35:59.316Z,2.15
2022-07-26T05:38:25.439Z,1.85
2022-07-26T05:40:51.630Z,1.80
2022-07-26T05:43:18.154Z,2.80
2022-07-26T05:45:44.234Z,1.98
2022-07-26T05:48:10.642Z,1.85
2022-07-26T05:50:36.777Z,1.65
2022-07-26T05:53:02.853Z,2.38
2022-07-26T05:55:28.964Z,1.30
2022-07-26T05:57:55.066Z,2.67
2022-07-26T06:00:21.252Z,3.50
2022-07-26T06:02:47.481Z,2.00
2022-07-26T06:05:15.213Z,2.05
2022-07-26T06:07:41.314Z,5.93
2022-07-26T06:10:07.803Z,7.25
2022-07-26T06:12:33.879Z,2.28
2022-07-26T06:14:59.937Z,2.10
2022-07-26T06:17:29.361Z,1.73
2022-07-26T06:19:56.790Z,1.92
2022-07-26T06:22:22.816Z,1.80
2022-07-26T06:24:48.985Z,2.00
2022-07-26T06:27:15.162Z,1.70
2022-07-26T06:29:41.332Z,12.75
2022-07-26T06:32:07.472Z,4.60
2022-07-26T06:34:33.745Z,2.17
2022-07-26T06:36:59.984Z,2.33
2022-07-26T06:39:26.386Z,1.60
2022-07-26T06:41:52.501Z,2.00
2022-07-26T06:44:18.610Z,1.60
2022-07-26T06:46:45.324Z,1.58
2022-07-26T06:49:13.412Z,1.40
2022-07-26T06:51:39.646Z,1.50
2022-07-26T06:54:06.148Z,1.52
2022-07-26T06:56:32.595Z,2.08
2022-07-26T06:58:58.788Z,1.77
2022-07-26T07:01:57.811Z,2.05
2022-07-26T07:04:11.594Z,1.92
2022-07-26T07:06:38.031Z,1.17
2022-07-26T07:09:04.367Z,1.50
2022-07-26T07:11:34.766Z,1.50
2022-07-26T07:14:02.586Z,1.33
2022-07-26T07:16:28.836Z,1.83
2022-07-26T07:18:55.062Z,1.55
2022-07-26T07:21:21.156Z,1.33
2022-07-26T07:23:47.269Z,1.17
2022-07-26T07:26:13.327Z,1.10
2022-07-26T07:28:39.436Z,1.63
2022-07-26T07:31:05.968Z,1.13
2022-07-26T07:33:36.684Z,1.38
2022-07-26T07:36:17.061Z,1.23
2022-07-26T07:38:47.534Z,1.27
2022-07-26T07:41:13.886Z,1.20
2022-07-26T07:43:40.701Z,0.95
2022-07-26T07:46:06.917Z,0.88
2022-07-26T07:48:33.152Z,0.82
2022-07-26T07:50:59.431Z,1.02
2022-07-26T07:53:25.845Z,1.05
2022-07-26T07:55:52.669Z,1.17
2022-07-26T07:58:21.706Z,1.13
2022-07-26T08:00:48.297Z,1.13
2022-07-26T08:03:17.867Z,1.00
2022-07-26T08:05:45.858Z,1.20
2022-07-26T08:08:11.979Z,1.17
2022-07-26T08:10:51.510Z,0.77
2022-07-26T08:13:21.304Z,1.05
2022-07-26T08:15:52.328Z,0.70
2022-07-26T08:18:22.897Z,0.90
2022-07-26T08:20:51.705Z,1.25
2022-07-26T08:23:18.532Z,1.10
2022-07-26T08:25:55.605Z,0.52
2022-07-26T08:28:38.154Z,0.88
2022-07-26T08:31:09.820Z,1.08
2022-07-26T08:33:36.102Z,0.57
2022-07-26T08:36:06.804Z,1.02
2022-07-26T08:38:32.958Z,0.82
2022-07-26T08:40:59.667Z,0.73
2022-07-26T08:43:26.361Z,0.90
2022-07-26T08:46:01.593Z,0.60
2022-07-26T08:48:28.842Z,1.40
2022-07-26T08:50:55.545Z,0.93
2022-07-26T08:53:23.281Z,1.25
2022-07-26T08:58:35.827Z,0.82
2022-07-26T09:01:08.254Z,1.50
2022-07-26T09:03:38.675Z,1.23
2022-07-26T09:06:19.478Z,0.70
2022-07-26T09:08:49.127Z,0.90
2022-07-26T09:11:35.517Z,1.10
2022-07-26T09:14:04.611Z,0.95
2022-07-26T09:16:34.978Z,0.88
2022-07-26T09:19:18.923Z,1.00
2022-07-26T09:21:45.898Z,0.90
2022-07-26T09:24:12.429Z,1.42
2022-07-26T09:26:38.669Z,0.93
2022-07-26T09:29:11.039Z,1.17
2022-07-26T09:31:38.908Z,1.20
2022-07-26T09:34:07.031Z,1.10
2022-07-26T09:36:48.899Z,1.40
2022-07-26T09:39:15.420Z,0.82
2022-07-26T09:41:41.545Z,0.90
2022-07-26T09:44:22.358Z,0.90
2022-07-26T09:46:57.390Z,1.40
2022-07-26T09:51:54.876Z,1.63
2022-07-26T09:54:33.662Z,1.17
2022-07-26T09:57:01.658Z,0.98
2022-07-26T09:59:29.305Z,0.98
2022-07-26T10:01:58.743Z,1.02
2022-07-26T10:04:26.459Z,0.63
2022-07-26T10:06:54.278Z,1.15
2022-07-26T10:09:25.469Z,1.13
2022-07-26T10:12:06.171Z,1.10
2022-07-26T10:14:33.046Z,0.90
2022-07-26T10:17:30.849Z,0.82
2022-07-26T10:20:03.546Z,0.98
2022-07-26T10:22:35.871Z,1.00
2022-07-26T10:25:17.951Z,1.30
2022-07-26T10:27:51.068Z,1.00
2022-07-26T10:30:23.972Z,0.70
2022-07-26T10:33:12.627Z,0.60
2022-07-26T10:35:43.886Z,0.60
2022-07-26T10:40:39.503Z,1.00
2022-07-26T10:46:15.724Z,1.05
2022-07-26T10:49:04.089Z,1.27
2022-07-26T10:51:36.637Z,1.65
2022-07-26T10:54:05.108Z,1.17
2022-07-26T10:56:33.636Z,0.90
2022-07-26T10:59:00.971Z,1.33
2022-07-26T11:01:37.425Z,1.40
2022-07-26T11:04:05.031Z,1.42
2022-07-26T11:06:32.203Z,1.27
2022-07-26T11:09:08.548Z,1.65
2022-07-26T11:11:34.719Z,1.88
2022-07-26T11:14:10.279Z,1.60
2022-07-26T11:16:49.667Z,1.00
2022-07-26T11:19:21.169Z,1.20
2022-07-26T11:21:54.285Z,1.50
2022-07-26T11:24:21.740Z,1.27
2022-07-26T11:26:47.986Z,1.77
2022-07-26T11:29:17.622Z,1.20
2022-07-26T11:31:59.950Z,1.98
2022-07-26T11:34:33.468Z,1.45
2022-07-26T11:37:02.254Z,1.42
2022-07-26T11:39:33.901Z,1.85
2022-07-26T11:42:04.379Z,1.58
2022-07-26T11:44:31.402Z,1.60
2022-07-26T11:46:58.586Z,2.13
2022-07-26T11:49:52.354Z,1.38
2022-07-26T11:52:13.626Z,1.30
2022-07-26T11:54:47.704Z,1.65
2022-07-26T11:57:14.764Z,1.55
2022-07-26T11:59:43.303Z,1.88
2022-07-26T12:02:09.791Z,1.63
2022-07-26T12:04:38.918Z,1.88
2022-07-26T12:07:13.414Z,1.70
2022-07-26T12:09:42.961Z,2.03
2022-07-26T12:12:18.865Z,1.70
2022-07-26T12:15:00.167Z,1.67
2022-07-26T12:17:27.283Z,2.28
2022-07-26T12:20:17.407Z,1.83
2022-07-26T12:23:05.308Z,1.83
2022-07-26T12:25:32.152Z,2.05
2022-07-26T12:27:58.484Z,1.77
2022-07-26T12:30:25.380Z,1.65
2022-07-26T12:33:04.154Z,1.65
2022-07-26T12:35:36.133Z,1.95
2022-07-26T12:38:03.199Z,2.10
2022-07-26T12:40:30.990Z,1.92
2022-07-26T12:43:02.825Z,2.08
2022-07-26T12:49:20.668Z,2.35
2022-07-26T12:51:46.911Z,2.38
2022-07-26T12:54:13.509Z,2.00
2022-07-26T12:56:58.974Z,2.08
2022-07-26T12:59:25.269Z,1.90
2022-07-26T13:01:52.241Z,2.33
2022-07-26T13:04:18.474Z,1.88
2022-07-26T13:06:44.635Z,2.10
2022-07-26T13:09:11.001Z,2.47
2022-07-26T13:11:37.287Z,1.88
2022-07-26T13:14:03.362Z,2.40
2022-07-26T13:16:29.456Z,2.13
2022-07-26T13:18:55.578Z,2.13
2022-07-26T13:21:23.093Z,2.65
2022-07-26T13:23:49.220Z,2.03
2022-07-26T13:26:15.309Z,2.10
2022-07-26T13:28:42.569Z,2.40
2022-07-26T13:31:08.664Z,1.80
2022-07-26T13:33:38.550Z,1.92
2022-07-26T13:36:04.840Z,1.98
2022-07-26T13:38:33.648Z,1.75
2022-07-26T13:41:01.611Z,1.98
2022-07-26T13:43:30.364Z,2.33
2022-07-26T13:45:57.702Z,1.95
2022-07-26T13:48:23.846Z,1.75
2022-07-26T13:50:53.645Z,1.77
2022-07-26T13:53:22.159Z,1.60
2022-07-26T13:55:48.276Z,1.95
2022-07-26T13:58:14.374Z,2.10
2022-07-26T14:00:41.231Z,1.40
2022-07-26T14:03:08.242Z,1.70
2022-07-26T14:05:34.542Z,1.55
2022-07-26T14:08:00.693Z,2.00
2022-07-26T14:10:26.897Z,1.50
2022-07-26T14:12:53.176Z,1.63
2022-07-26T14:15:22.606Z,2.00
2022-07-26T14:17:51.495Z,1.85
2022-07-26T14:20:18.387Z,1.67
2022-07-26T14:22:45.194Z,1.15
2022-07-26T14:25:11.720Z,1.35
2022-07-26T14:27:38.341Z,1.35
2022-07-26T14:30:05.326Z,1.60
2022-07-26T14:32:31.488Z,1.65
2022-07-26T14:34:57.641Z,1.27
2022-07-26T14:37:42.678Z,1.50
2022-07-26T14:40:11.652Z,1.08
2022-07-26T14:42:37.817Z,1.23
2022-07-26T14:45:04.784Z,1.55
2022-07-26T14:47:30.952Z,1.80
2022-07-26T14:49:57.099Z,1.30
2022-07-26T14:52:23.314Z,1.90
2022-07-26T14:54:49.435Z,1.27
2022-07-26T14:57:15.614Z,1.70
2022-07-26T14:59:41.771Z,1.40
2022-07-26T15:02:09.918Z,1.20
2022-07-26T15:04:36.079Z,1.15
2022-07-26T15:07:02.245Z,1.40
2022-07-26T15:09:28.447Z,1.13
2022-07-26T15:11:54.559Z,1.90
2022-07-26T15:14:20.852Z,7.13
2022-07-26T15:16:48.662Z,1.88
2022-07-26T15:19:14.943Z,1.50
2022-07-26T15:21:41.158Z,1.60
2022-07-26T15:24:10.946Z,1.17
2022-07-26T15:26:37.969Z,1.40
2022-07-26T15:29:04.253Z,2.83
2022-07-26T15:31:37.434Z,1.90
2022-07-26T15:34:06.724Z,1.67
2022-07-26T15:36:32.850Z,1.13
2022-07-26T15:39:05.292Z,1.48
2022-07-26T15:41:42.047Z,1.38
2022-07-26T15:44:09.961Z,1.73
2022-07-26T15:46:38.399Z,1.35
2022-07-26T15:49:06.700Z,0.88
2022-07-26T15:51:33.211Z,1.30
2022-07-26T15:53:59.593Z,1.58
2022-07-26T15:56:25.825Z,1.38
2022-07-26T15:58:51.986Z,1.63
2022-07-26T16:01:21.361Z,1.30
2022-07-26T16:03:47.568Z,1.75
2022-07-26T16:06:13.813Z,1.73
2022-07-26T16:08:58.934Z,1.20
2022-07-26T16:11:27.824Z,1.55
2022-07-26T16:14:01.699Z,1.70
2022-07-26T16:16:29.812Z,1.08
2022-07-26T16:18:56.095Z,1.42
2022-07-26T16:21:22.390Z,1.50
2022-07-26T16:23:50.198Z,1.80
2022-07-26T16:26:18.485Z,1.30
2022-07-26T16:28:45.295Z,2.22
2022-07-26T16:31:11.537Z,2.00
2022-07-26T16:33:37.712Z,1.45
2022-07-26T16:36:11.981Z,1.02
2022-07-26T16:38:38.140Z,1.65
2022-07-26T16:41:04.341Z,1.80
2022-07-26T16:43:30.726Z,1.65
2022-07-26T16:45:57.285Z,1.20
2022-07-26T16:48:23.846Z,1.20
2022-07-26T16:50:49.925Z,1.38
2022-07-26T16:53:16.166Z,1.67
2022-07-26T16:55:44.184Z,1.35
2022-07-26T16:58:10.303Z,1.58
2022-07-26T17:00:37.184Z,1.30
2022-07-26T17:03:03.442Z,1.60
2022-07-26T17:05:29.736Z,1.55
2022-07-26T17:07:55.862Z,2.00
2022-07-26T17:10:24.362Z,1.75
2022-07-26T17:12:50.570Z,1.90
2022-07-26T17:15:17.191Z,1.42
2022-07-26T17:17:48.388Z,2.10
2022-07-26T17:20:15.626Z,1.55
2022-07-26T17:22:41.829Z,2.13
2022-07-26T17:25:08.106Z,1.70
2022-07-26T17:27:34.969Z,1.48
2022-07-26T17:30:07.142Z,1.67
2022-07-26T17:32:34.049Z,1.40
2022-07-26T17:35:00.410Z,1.55
2022-07-26T17:37:26.795Z,1.60
2022-07-26T17:39:54.981Z,1.33
2022-07-26T17:42:24.198Z,1.23
2022-07-26T17:44:50.742Z,1.40
2022-07-26T17:47:28.560Z,1.30
2022-07-26T17:50:13.909Z,1.27
2022-07-26T17:52:45.247Z,1.98
2022-07-26T17:55:11.421Z,1.23
2022-07-26T17:57:38.017Z,1.17
2022-07-26T18:00:06.740Z,1.77
2022-07-26T18:02:33.128Z,1.30
2022-07-26T18:04:59.289Z,1.02
2022-07-26T18:07:25.848Z,1.27
2022-07-26T18:09:51.981Z,1.17
2022-07-26T18:12:18.117Z,1.27
2022-07-26T18:14:44.224Z,1.55
2022-07-26T18:17:10.393Z,1.08
2022-07-26T18:19:36.491Z,1.30
2022-07-26T18:22:05.886Z,1.50
2022-07-26T18:24:32.526Z,1.20
2022-07-26T18:26:58.570Z,1.20
2022-07-26T18:29:24.762Z,0.93
2022-07-26T18:31:55.199Z,1.02
2022-07-26T18:34:21.361Z,1.27
2022-07-26T18:36:47.416Z,0.73
2022-07-26T18:39:13.957Z,1.25
2022-07-26T18:41:40.455Z,0.80
2022-07-26T18:44:06.550Z,1.67
2022-07-26T18:46:33.573Z,0.85
2022-07-26T18:49:00.178Z,1.00
2022-07-26T18:51:26.731Z,1.10
2022-07-26T18:53:53.386Z,1.08
2022-07-26T18:56:19.797Z,0.88
2022-07-26T18:58:46.234Z,1.10
2022-07-26T19:01:12.390Z,1.25
2022-07-26T19:03:38.568Z,1.60
2022-07-26T19:06:05.228Z,1.30
2022-07-26T19:08:31.444Z,1.25
2022-07-26T19:10:57.637Z,1.35
2022-07-26T19:13:23.810Z,0.95
2022-07-26T19:15:50.456Z,1.42
2022-07-26T19:18:17.164Z,1.30
2022-07-26T19:20:46.517Z,1.40
2022-07-26T19:23:12.774Z,1.02
2022-07-26T19:25:39.801Z,1.30
2022-07-26T19:28:06.534Z,0.88
2022-07-26T19:30:35.816Z,1.70
2022-07-26T19:33:02.112Z,1.35
2022-07-26T19:35:28.313Z,1.45
2022-07-26T19:37:54.567Z,3.17
2022-07-26T19:40:21.435Z,1.17
2022-07-26T19:42:50.638Z,0.90
2022-07-26T19:45:17.252Z,0.95
2022-07-26T19:47:43.694Z,1.08
2022-07-26T19:50:15.693Z,0.98
2022-07-26T19:52:41.867Z,1.88
2022-07-26T19:55:08.953Z,1.33
2022-07-26T19:57:35.263Z,1.10
2022-07-26T20:00:03.852Z,0.75
2022-07-26T20:02:30.259Z,1.23
2022-07-26T20:04:56.730Z,1.20
2022-07-26T20:07:22.932Z,0.45
2022-07-26T20:09:50.383Z,0.70
2022-07-26T20:12:17.957Z,0.80
2022-07-26T20:14:45.374Z,0.82
2022-07-26T20:17:13.055Z,0.75
2022-07-26T20:19:40.366Z,0.80
2022-07-26T20:22:06.659Z,0.85
2022-07-26T20:24:32.811Z,0.82
2022-07-26T20:26:59.562Z,0.90
2022-07-26T20:29:25.915Z,0.80
2022-07-26T20:31:52.197Z,0.65
2022-07-26T20:34:23.646Z,0.73
2022-07-26T20:39:15.922Z,0.73
2022-07-26T20:49:48.162Z,0.85
2022-07-26T20:52:14.402Z,0.80
2022-07-26T20:54:40.578Z,0.82
2022-07-26T20:57:06.719Z,0.82
2022-07-26T20:59:34.284Z,0.82
2022-07-26T21:02:00.524Z,0.70
2022-07-26T21:04:26.676Z,0.88
2022-07-26T21:06:52.811Z,0.80
2022-07-26T21:09:19.106Z,0.65
2022-07-26T21:11:45.225Z,0.65
2022-07-26T21:14:12.071Z,1.08
2022-07-26T21:16:38.255Z,1.00
2022-07-26T21:19:05.406Z,0.90
2022-07-26T21:21:33.379Z,0.82
2022-07-26T21:23:59.553Z,1.08
2022-07-26T21:26:25.678Z,0.90
2022-07-26T21:28:51.791Z,1.08
2022-07-26T21:31:18.162Z,1.30
2022-07-26T21:33:44.654Z,1.00
2022-07-26T21:36:10.842Z,0.82
2022-07-26T21:38:37.054Z,1.08
2022-07-26T21:41:03.125Z,0.90
2022-07-26T21:43:29.437Z,1.38
2022-07-26T21:45:55.988Z,0.93
2022-07-26T21:48:23.806Z,1.23
2022-07-26T21:50:50.313Z,0.90
2022-07-26T21:53:16.451Z,1.33
2022-07-26T21:55:42.721Z,1.40
2022-07-26T21:58:08.929Z,1.40
2022-07-26T22:00:36.061Z,1.63
2022-07-26T22:03:02.925Z,1.27
2022-07-26T22:05:34.767Z,1.38
2022-07-26T22:08:01.593Z,1.20
2022-07-26T22:10:28.078Z,1.40
2022-07-26T22:12:54.133Z,1.90
2022-07-26T22:15:21.339Z,1.13
2022-07-26T22:17:47.736Z,1.20
2022-07-26T22:20:14.514Z,1.38
2022-07-26T22:22:40.993Z,1.30
2022-07-26T22:25:07.524Z,1.23
2022-07-26T22:27:33.626Z,1.52
2022-07-26T22:29:59.776Z,1.45
2022-07-26T22:32:26.738Z,1.08
2022-07-26T22:34:52.775Z,1.27
2022-07-26T22:37:18.889Z,1.20
2022-07-26T22:39:44.922Z,1.10
2022-07-26T22:42:15.789Z,1.42
2022-07-26T22:44:42.334Z,0.95
2022-07-26T22:47:08.889Z,1.00
2022-07-26T22:49:35.359Z,1.08
2022-07-26T22:52:01.474Z,1.10
2022-07-26T22:54:27.880Z,1.40
2022-07-26T22:56:54.269Z,1.27
2022-07-26T22:59:21.823Z,1.20
2022-07-26T23:01:48.294Z,1.52
2022-07-26T23:04:14.538Z,1.10
2022-07-26T23:06:40.653Z,1.17
2022-07-26T23:09:06.851Z,1.25
2022-07-26T23:11:32.900Z,1.25
2022-07-26T23:14:00.183Z,1.30
2022-07-26T23:16:26.732Z,1.10
2022-07-26T23:18:53.178Z,1.20
2022-07-26T23:21:19.349Z,1.30
2022-07-26T23:23:45.406Z,1.45
2022-07-26T23:26:11.455Z,1.40
2022-07-26T23:28:38.519Z,1.50
2022-07-26T23:31:10.399Z,1.38
2022-07-26T23:33:53.326Z,1.00
2022-07-26T23:36:24.668Z,1.42
2022-07-26T23:38:51.311Z,1.10
2022-07-26T23:41:18.393Z,1.55
2022-07-26T23:43:44.477Z,1.60
2022-07-26T23:46:10.658Z,1.13
2022-07-26T23:48:37.042Z,1.40
2022-07-26T23:51:03.212Z,1.30
2022-07-26T23:53:29.517Z,1.00
2022-07-26T23:55:55.634Z,1.40
2022-07-26T23:58:21.777Z,1.20
